sensor_id;sensor_type;location;lat;lon;timestamp;P1;durP1;ratioP1;P2;durP2;ratioP2
55633;SDS011;41504;53.162;6.788;2023-08-07T00:00:30;5.57;;;2.90;;
55633;SDS011;41504;53.162;6.788;2023-08-07T00:02:56;5.00;;;2.65;;
55633;SDS011;41504;53.162;6.788;2023-08-07T00:05:21;5.85;;;3.08;;
55633;SDS011;41504;53.162;6.788;2023-08-07T00:07:47;5.97;;;3.00;;
55633;SDS011;41504;53.162;6.788;2023-08-07T00:10:13;7.55;;;3.08;;
55633;SDS011;41504;53.162;6.788;2023-08-07T00:12:39;5.72;;;3.08;;
55633;SDS011;41504;53.162;6.788;2023-08-07T00:15:05;6.35;;;3.17;;
55633;SDS011;41504;53.162;6.788;2023-08-07T00:17:35;6.07;;;2.97;;
55633;SDS011;41504;53.162;6.788;2023-08-07T00:20:00;5.85;;;3.10;;
55633;SDS011;41504;53.162;6.788;2023-08-07T00:22:26;7.07;;;3.17;;
55633;SDS011;41504;53.162;6.788;2023-08-07T00:24:52;5.90;;;2.80;;
55633;SDS011;41504;53.162;6.788;2023-08-07T00:27:18;5.90;;;3.00;;
55633;SDS011;41504;53.162;6.788;2023-08-07T00:29:43;7.38;;;3.17;;
55633;SDS011;41504;53.162;6.788;2023-08-07T00:32:09;5.80;;;3.00;;
55633;SDS011;41504;53.162;6.788;2023-08-07T00:34:47;6.65;;;2.97;;
55633;SDS011;41504;53.162;6.788;2023-08-07T00:37:14;7.03;;;2.90;;
55633;SDS011;41504;53.162;6.788;2023-08-07T00:39:40;7.60;;;3.45;;
55633;SDS011;41504;53.162;6.788;2023-08-07T00:42:06;6.05;;;2.90;;
55633;SDS011;41504;53.162;6.788;2023-08-07T00:44:34;5.63;;;2.80;;
55633;SDS011;41504;53.162;6.788;2023-08-07T00:47:00;7.90;;;3.50;;
55633;SDS011;41504;53.162;6.788;2023-08-07T00:49:26;7.05;;;2.78;;
55633;SDS011;41504;53.162;6.788;2023-08-07T00:51:52;6.78;;;3.53;;
55633;SDS011;41504;53.162;6.788;2023-08-07T00:54:18;7.13;;;3.38;;
55633;SDS011;41504;53.162;6.788;2023-08-07T00:56:45;5.60;;;3.40;;
55633;SDS011;41504;53.162;6.788;2023-08-07T00:59:12;10.82;;;4.13;;
55633;SDS011;41504;53.162;6.788;2023-08-07T01:01:39;7.25;;;3.60;;
55633;SDS011;41504;53.162;6.788;2023-08-07T01:04:06;7.40;;;3.05;;
55633;SDS011;41504;53.162;6.788;2023-08-07T01:06:32;6.15;;;3.35;;
55633;SDS011;41504;53.162;6.788;2023-08-07T01:08:58;6.85;;;3.30;;
55633;SDS011;41504;53.162;6.788;2023-08-07T01:11:30;7.57;;;3.72;;
55633;SDS011;41504;53.162;6.788;2023-08-07T01:16:52;7.15;;;3.50;;
55633;SDS011;41504;53.162;6.788;2023-08-07T01:19:29;7.85;;;3.88;;
55633;SDS011;41504;53.162;6.788;2023-08-07T01:24:35;5.95;;;3.45;;
55633;SDS011;41504;53.162;6.788;2023-08-07T01:29:54;9.10;;;3.42;;
55633;SDS011;41504;53.162;6.788;2023-08-07T01:35:26;11.20;;;4.10;;
55633;SDS011;41504;53.162;6.788;2023-08-07T01:37:57;6.85;;;3.72;;
55633;SDS011;41504;53.162;6.788;2023-08-07T01:40:24;6.82;;;3.42;;
55633;SDS011;41504;53.162;6.788;2023-08-07T01:42:52;6.70;;;3.33;;
55633;SDS011;41504;53.162;6.788;2023-08-07T01:45:22;7.55;;;3.97;;
55633;SDS011;41504;53.162;6.788;2023-08-07T01:47:52;9.02;;;4.10;;
55633;SDS011;41504;53.162;6.788;2023-08-07T01:50:21;7.30;;;3.60;;
55633;SDS011;41504;53.162;6.788;2023-08-07T01:52:48;7.97;;;3.30;;
55633;SDS011;41504;53.162;6.788;2023-08-07T01:55:18;6.43;;;2.85;;
55633;SDS011;41504;53.162;6.788;2023-08-07T01:57:45;5.20;;;2.75;;
55633;SDS011;41504;53.162;6.788;2023-08-07T02:00:10;6.47;;;2.72;;
55633;SDS011;41504;53.162;6.788;2023-08-07T02:02:37;7.18;;;3.58;;
55633;SDS011;41504;53.162;6.788;2023-08-07T02:05:03;6.63;;;3.20;;
55633;SDS011;41504;53.162;6.788;2023-08-07T02:07:29;8.13;;;3.63;;
55633;SDS011;41504;53.162;6.788;2023-08-07T02:09:55;7.63;;;3.60;;
55633;SDS011;41504;53.162;6.788;2023-08-07T02:12:22;9.20;;;4.32;;
55633;SDS011;41504;53.162;6.788;2023-08-07T02:14:47;8.07;;;4.10;;
55633;SDS011;41504;53.162;6.788;2023-08-07T02:17:14;10.45;;;4.35;;
55633;SDS011;41504;53.162;6.788;2023-08-07T02:19:40;9.10;;;4.40;;
55633;SDS011;41504;53.162;6.788;2023-08-07T02:22:08;9.52;;;4.15;;
55633;SDS011;41504;53.162;6.788;2023-08-07T02:24:34;10.18;;;5.10;;
55633;SDS011;41504;53.162;6.788;2023-08-07T02:27:00;8.50;;;4.32;;
55633;SDS011;41504;53.162;6.788;2023-08-07T02:29:25;8.73;;;4.22;;
55633;SDS011;41504;53.162;6.788;2023-08-07T02:31:51;8.10;;;3.63;;
55633;SDS011;41504;53.162;6.788;2023-08-07T02:34:17;6.85;;;3.45;;
55633;SDS011;41504;53.162;6.788;2023-08-07T02:36:42;6.60;;;3.33;;
55633;SDS011;41504;53.162;6.788;2023-08-07T02:39:08;7.07;;;3.22;;
55633;SDS011;41504;53.162;6.788;2023-08-07T02:41:34;8.38;;;3.50;;
55633;SDS011;41504;53.162;6.788;2023-08-07T02:43:59;8.43;;;3.75;;
55633;SDS011;41504;53.162;6.788;2023-08-07T02:46:25;7.25;;;3.20;;
55633;SDS011;41504;53.162;6.788;2023-08-07T02:48:51;10.40;;;3.30;;
55633;SDS011;41504;53.162;6.788;2023-08-07T02:51:17;9.02;;;3.22;;
55633;SDS011;41504;53.162;6.788;2023-08-07T02:53:43;6.68;;;2.63;;
55633;SDS011;41504;53.162;6.788;2023-08-07T02:56:09;9.82;;;3.17;;
55633;SDS011;41504;53.162;6.788;2023-08-07T02:58:38;8.77;;;3.10;;
55633;SDS011;41504;53.162;6.788;2023-08-07T03:01:04;8.57;;;3.30;;
55633;SDS011;41504;53.162;6.788;2023-08-07T03:03:33;11.25;;;3.50;;
55633;SDS011;41504;53.162;6.788;2023-08-07T03:06:02;11.27;;;4.00;;
55633;SDS011;41504;53.162;6.788;2023-08-07T03:08:28;11.82;;;3.60;;
55633;SDS011;41504;53.162;6.788;2023-08-07T03:10:55;10.57;;;3.80;;
55633;SDS011;41504;53.162;6.788;2023-08-07T03:13:22;10.57;;;3.92;;
55633;SDS011;41504;53.162;6.788;2023-08-07T03:15:48;12.20;;;3.95;;
55633;SDS011;41504;53.162;6.788;2023-08-07T03:18:15;10.63;;;3.72;;
55633;SDS011;41504;53.162;6.788;2023-08-07T03:20:42;11.25;;;3.80;;
55633;SDS011;41504;53.162;6.788;2023-08-07T03:23:08;13.55;;;4.07;;
55633;SDS011;41504;53.162;6.788;2023-08-07T03:25:35;11.85;;;4.07;;
55633;SDS011;41504;53.162;6.788;2023-08-07T03:28:00;11.45;;;4.60;;
55633;SDS011;41504;53.162;6.788;2023-08-07T03:30:26;11.40;;;4.30;;
55633;SDS011;41504;53.162;6.788;2023-08-07T03:32:52;12.60;;;4.13;;
55633;SDS011;41504;53.162;6.788;2023-08-07T03:35:17;14.95;;;4.30;;
55633;SDS011;41504;53.162;6.788;2023-08-07T03:37:43;12.65;;;4.38;;
55633;SDS011;41504;53.162;6.788;2023-08-07T03:40:09;12.10;;;4.68;;
55633;SDS011;41504;53.162;6.788;2023-08-07T03:42:35;9.82;;;4.00;;
55633;SDS011;41504;53.162;6.788;2023-08-07T03:45:02;11.85;;;4.05;;
55633;SDS011;41504;53.162;6.788;2023-08-07T03:47:28;12.75;;;3.13;;
55633;SDS011;41504;53.162;6.788;2023-08-07T03:49:54;10.07;;;3.50;;
55633;SDS011;41504;53.162;6.788;2023-08-07T03:52:19;8.20;;;3.13;;
55633;SDS011;41504;53.162;6.788;2023-08-07T03:54:45;6.93;;;2.53;;
55633;SDS011;41504;53.162;6.788;2023-08-07T03:57:11;8.73;;;2.78;;
55633;SDS011;41504;53.162;6.788;2023-08-07T03:59:37;9.75;;;2.88;;
55633;SDS011;41504;53.162;6.788;2023-08-07T04:02:03;7.40;;;2.58;;
55633;SDS011;41504;53.162;6.788;2023-08-07T04:04:29;7.60;;;2.70;;
55633;SDS011;41504;53.162;6.788;2023-08-07T04:06:57;6.68;;;2.70;;
55633;SDS011;41504;53.162;6.788;2023-08-07T04:09:22;8.23;;;2.65;;
55633;SDS011;41504;53.162;6.788;2023-08-07T04:11:48;8.45;;;2.83;;
55633;SDS011;41504;53.162;6.788;2023-08-07T04:14:20;7.10;;;2.80;;
55633;SDS011;41504;53.162;6.788;2023-08-07T04:16:46;5.88;;;2.28;;
55633;SDS011;41504;53.162;6.788;2023-08-07T04:19:14;8.85;;;2.20;;
55633;SDS011;41504;53.162;6.788;2023-08-07T04:21:56;8.27;;;2.08;;
55633;SDS011;41504;53.162;6.788;2023-08-07T04:24:22;7.97;;;2.33;;
55633;SDS011;41504;53.162;6.788;2023-08-07T04:26:48;8.88;;;2.30;;
55633;SDS011;41504;53.162;6.788;2023-08-07T04:29:14;8.38;;;2.60;;
55633;SDS011;41504;53.162;6.788;2023-08-07T04:31:39;7.15;;;2.72;;
55633;SDS011;41504;53.162;6.788;2023-08-07T04:34:05;9.45;;;3.00;;
55633;SDS011;41504;53.162;6.788;2023-08-07T04:36:36;10.18;;;3.38;;
55633;SDS011;41504;53.162;6.788;2023-08-07T04:39:02;10.45;;;2.80;;
55633;SDS011;41504;53.162;6.788;2023-08-07T04:41:28;10.73;;;3.05;;
55633;SDS011;41504;53.162;6.788;2023-08-07T04:43:53;7.60;;;3.08;;
55633;SDS011;41504;53.162;6.788;2023-08-07T04:46:19;12.95;;;3.30;;
55633;SDS011;41504;53.162;6.788;2023-08-07T04:48:45;12.20;;;3.55;;
55633;SDS011;41504;53.162;6.788;2023-08-07T04:51:12;10.60;;;3.88;;
55633;SDS011;41504;53.162;6.788;2023-08-07T04:53:38;9.07;;;3.03;;
55633;SDS011;41504;53.162;6.788;2023-08-07T04:56:04;9.48;;;3.30;;
55633;SDS011;41504;53.162;6.788;2023-08-07T04:58:30;6.25;;;2.83;;
55633;SDS011;41504;53.162;6.788;2023-08-07T05:00:56;8.98;;;3.22;;
55633;SDS011;41504;53.162;6.788;2023-08-07T05:03:22;12.02;;;3.40;;
55633;SDS011;41504;53.162;6.788;2023-08-07T05:05:48;10.70;;;3.60;;
55633;SDS011;41504;53.162;6.788;2023-08-07T05:08:17;12.98;;;3.80;;
55633;SDS011;41504;53.162;6.788;2023-08-07T05:10:42;9.15;;;3.30;;
55633;SDS011;41504;53.162;6.788;2023-08-07T05:13:08;8.95;;;3.40;;
55633;SDS011;41504;53.162;6.788;2023-08-07T05:15:34;9.15;;;3.50;;
55633;SDS011;41504;53.162;6.788;2023-08-07T05:17:59;12.40;;;3.67;;
55633;SDS011;41504;53.162;6.788;2023-08-07T05:20:25;13.20;;;4.15;;
55633;SDS011;41504;53.162;6.788;2023-08-07T05:22:51;14.52;;;4.22;;
55633;SDS011;41504;53.162;6.788;2023-08-07T05:25:17;10.35;;;3.47;;
55633;SDS011;41504;53.162;6.788;2023-08-07T05:27:44;15.00;;;4.03;;
55633;SDS011;41504;53.162;6.788;2023-08-07T05:30:10;10.35;;;3.40;;
55633;SDS011;41504;53.162;6.788;2023-08-07T05:32:36;12.02;;;3.65;;
55633;SDS011;41504;53.162;6.788;2023-08-07T05:35:06;11.57;;;3.22;;
55633;SDS011;41504;53.162;6.788;2023-08-07T05:37:33;10.90;;;3.55;;
55633;SDS011;41504;53.162;6.788;2023-08-07T05:39:59;11.52;;;3.17;;
55633;SDS011;41504;53.162;6.788;2023-08-07T05:42:25;10.30;;;3.45;;
55633;SDS011;41504;53.162;6.788;2023-08-07T05:44:51;13.30;;;4.15;;
55633;SDS011;41504;53.162;6.788;2023-08-07T05:47:16;12.65;;;3.80;;
55633;SDS011;41504;53.162;6.788;2023-08-07T05:49:42;13.30;;;3.72;;
55633;SDS011;41504;53.162;6.788;2023-08-07T05:52:08;13.23;;;3.85;;
55633;SDS011;41504;53.162;6.788;2023-08-07T05:54:34;11.98;;;3.88;;
55633;SDS011;41504;53.162;6.788;2023-08-07T05:56:59;12.95;;;4.00;;
55633;SDS011;41504;53.162;6.788;2023-08-07T05:59:25;10.10;;;3.65;;
55633;SDS011;41504;53.162;6.788;2023-08-07T06:01:51;11.85;;;3.58;;
55633;SDS011;41504;53.162;6.788;2023-08-07T06:04:18;17.75;;;4.53;;
55633;SDS011;41504;53.162;6.788;2023-08-07T06:06:44;12.10;;;3.70;;
55633;SDS011;41504;53.162;6.788;2023-08-07T06:09:11;14.23;;;3.63;;
55633;SDS011;41504;53.162;6.788;2023-08-07T06:11:37;11.52;;;3.50;;
55633;SDS011;41504;53.162;6.788;2023-08-07T06:14:03;12.35;;;3.60;;
55633;SDS011;41504;53.162;6.788;2023-08-07T06:16:29;10.13;;;3.08;;
55633;SDS011;41504;53.162;6.788;2023-08-07T06:18:55;10.70;;;3.08;;
55633;SDS011;41504;53.162;6.788;2023-08-07T06:21:20;8.50;;;3.42;;
55633;SDS011;41504;53.162;6.788;2023-08-07T06:23:47;11.50;;;3.42;;
55633;SDS011;41504;53.162;6.788;2023-08-07T06:26:13;11.52;;;3.58;;
55633;SDS011;41504;53.162;6.788;2023-08-07T06:28:39;14.70;;;3.45;;
55633;SDS011;41504;53.162;6.788;2023-08-07T06:31:05;11.25;;;3.35;;
55633;SDS011;41504;53.162;6.788;2023-08-07T06:33:35;12.55;;;3.70;;
55633;SDS011;41504;53.162;6.788;2023-08-07T06:36:04;13.45;;;3.67;;
55633;SDS011;41504;53.162;6.788;2023-08-07T06:38:34;11.75;;;3.42;;
55633;SDS011;41504;53.162;6.788;2023-08-07T06:41:00;13.18;;;3.28;;
55633;SDS011;41504;53.162;6.788;2023-08-07T06:43:26;10.80;;;3.10;;
55633;SDS011;41504;53.162;6.788;2023-08-07T06:45:52;11.05;;;2.70;;
55633;SDS011;41504;53.162;6.788;2023-08-07T06:48:19;9.50;;;3.08;;
55633;SDS011;41504;53.162;6.788;2023-08-07T06:50:46;9.63;;;2.95;;
55633;SDS011;41504;53.162;6.788;2023-08-07T06:53:12;10.60;;;2.80;;
55633;SDS011;41504;53.162;6.788;2023-08-07T06:55:38;10.90;;;3.38;;
55633;SDS011;41504;53.162;6.788;2023-08-07T06:58:05;12.23;;;3.03;;
55633;SDS011;41504;53.162;6.788;2023-08-07T07:00:34;8.25;;;2.97;;
55633;SDS011;41504;53.162;6.788;2023-08-07T07:03:00;9.85;;;3.10;;
55633;SDS011;41504;53.162;6.788;2023-08-07T07:05:27;10.02;;;3.00;;
55633;SDS011;41504;53.162;6.788;2023-08-07T07:07:52;10.98;;;3.22;;
55633;SDS011;41504;53.162;6.788;2023-08-07T07:10:19;14.52;;;3.53;;
55633;SDS011;41504;53.162;6.788;2023-08-07T07:12:45;11.73;;;3.10;;
55633;SDS011;41504;53.162;6.788;2023-08-07T07:15:11;13.10;;;3.70;;
55633;SDS011;41504;53.162;6.788;2023-08-07T07:17:37;12.10;;;3.83;;
55633;SDS011;41504;53.162;6.788;2023-08-07T07:20:03;13.25;;;3.50;;
55633;SDS011;41504;53.162;6.788;2023-08-07T07:22:30;13.98;;;3.58;;
55633;SDS011;41504;53.162;6.788;2023-08-07T07:24:55;13.93;;;3.60;;
55633;SDS011;41504;53.162;6.788;2023-08-07T07:27:21;12.95;;;3.20;;
55633;SDS011;41504;53.162;6.788;2023-08-07T07:29:47;13.65;;;3.10;;
55633;SDS011;41504;53.162;6.788;2023-08-07T07:32:13;10.25;;;3.22;;
55633;SDS011;41504;53.162;6.788;2023-08-07T07:34:39;9.35;;;3.38;;
55633;SDS011;41504;53.162;6.788;2023-08-07T07:37:05;11.07;;;3.20;;
55633;SDS011;41504;53.162;6.788;2023-08-07T07:39:31;9.35;;;3.08;;
55633;SDS011;41504;53.162;6.788;2023-08-07T07:41:56;14.57;;;4.03;;
55633;SDS011;41504;53.162;6.788;2023-08-07T07:44:22;12.77;;;3.25;;
55633;SDS011;41504;53.162;6.788;2023-08-07T07:46:48;11.32;;;3.55;;
55633;SDS011;41504;53.162;6.788;2023-08-07T07:49:17;12.15;;;3.40;;
55633;SDS011;41504;53.162;6.788;2023-08-07T07:51:42;12.18;;;3.30;;
55633;SDS011;41504;53.162;6.788;2023-08-07T07:54:09;10.63;;;3.30;;
55633;SDS011;41504;53.162;6.788;2023-08-07T07:56:35;9.60;;;2.92;;
55633;SDS011;41504;53.162;6.788;2023-08-07T07:59:04;13.18;;;3.08;;
55633;SDS011;41504;53.162;6.788;2023-08-07T08:01:29;10.27;;;3.50;;
55633;SDS011;41504;53.162;6.788;2023-08-07T08:03:55;10.50;;;3.30;;
55633;SDS011;41504;53.162;6.788;2023-08-07T08:06:21;9.13;;;2.90;;
55633;SDS011;41504;53.162;6.788;2023-08-07T08:08:47;9.82;;;3.00;;
55633;SDS011;41504;53.162;6.788;2023-08-07T08:11:13;9.13;;;2.60;;
55633;SDS011;41504;53.162;6.788;2023-08-07T08:13:38;15.27;;;3.15;;
55633;SDS011;41504;53.162;6.788;2023-08-07T08:18:37;12.80;;;3.22;;
55633;SDS011;41504;53.162;6.788;2023-08-07T08:21:11;12.63;;;3.15;;
55633;SDS011;41504;53.162;6.788;2023-08-07T08:23:37;10.85;;;2.70;;
55633;SDS011;41504;53.162;6.788;2023-08-07T08:26:03;9.05;;;3.25;;
55633;SDS011;41504;53.162;6.788;2023-08-07T08:28:28;11.25;;;3.00;;
55633;SDS011;41504;53.162;6.788;2023-08-07T08:30:54;7.55;;;2.58;;
55633;SDS011;41504;53.162;6.788;2023-08-07T08:33:20;12.60;;;3.42;;
55633;SDS011;41504;53.162;6.788;2023-08-07T08:35:46;10.50;;;3.50;;
55633;SDS011;41504;53.162;6.788;2023-08-07T08:38:11;12.20;;;3.40;;
55633;SDS011;41504;53.162;6.788;2023-08-07T08:40:41;12.77;;;3.53;;
55633;SDS011;41504;53.162;6.788;2023-08-07T08:43:09;11.30;;;3.17;;
55633;SDS011;41504;53.162;6.788;2023-08-07T08:45:40;8.57;;;3.20;;
55633;SDS011;41504;53.162;6.788;2023-08-07T08:48:07;9.07;;;3.10;;
55633;SDS011;41504;53.162;6.788;2023-08-07T08:50:38;14.65;;;3.42;;
55633;SDS011;41504;53.162;6.788;2023-08-07T08:53:05;11.10;;;3.85;;
55633;SDS011;41504;53.162;6.788;2023-08-07T08:55:39;9.60;;;3.33;;
55633;SDS011;41504;53.162;6.788;2023-08-07T08:58:08;11.57;;;3.40;;
55633;SDS011;41504;53.162;6.788;2023-08-07T09:00:34;12.15;;;3.20;;
55633;SDS011;41504;53.162;6.788;2023-08-07T09:03:00;10.52;;;3.25;;
55633;SDS011;41504;53.162;6.788;2023-08-07T09:05:27;11.57;;;3.65;;
55633;SDS011;41504;53.162;6.788;2023-08-07T09:07:54;12.13;;;3.00;;
55633;SDS011;41504;53.162;6.788;2023-08-07T09:10:21;8.88;;;2.40;;
55633;SDS011;41504;53.162;6.788;2023-08-07T09:13:00;6.65;;;2.25;;
55633;SDS011;41504;53.162;6.788;2023-08-07T09:15:29;8.52;;;2.05;;
55633;SDS011;41504;53.162;6.788;2023-08-07T09:17:56;8.38;;;2.72;;
55633;SDS011;41504;53.162;6.788;2023-08-07T09:20:24;11.98;;;2.70;;
55633;SDS011;41504;53.162;6.788;2023-08-07T09:22:53;11.25;;;2.83;;
55633;SDS011;41504;53.162;6.788;2023-08-07T09:27:55;9.13;;;2.65;;
55633;SDS011;41504;53.162;6.788;2023-08-07T09:30:28;9.77;;;2.30;;
55633;SDS011;41504;53.162;6.788;2023-08-07T09:32:56;7.38;;;2.33;;
55633;SDS011;41504;53.162;6.788;2023-08-07T09:35:23;9.10;;;2.63;;
55633;SDS011;41504;53.162;6.788;2023-08-07T09:37:49;12.10;;;2.70;;
55633;SDS011;41504;53.162;6.788;2023-08-07T09:40:16;10.95;;;2.83;;
55633;SDS011;41504;53.162;6.788;2023-08-07T09:42:43;9.95;;;3.03;;
55633;SDS011;41504;53.162;6.788;2023-08-07T09:45:26;7.78;;;3.00;;
55633;SDS011;41504;53.162;6.788;2023-08-07T09:48:03;12.38;;;2.80;;
55633;SDS011;41504;53.162;6.788;2023-08-07T09:50:34;11.45;;;3.17;;
55633;SDS011;41504;53.162;6.788;2023-08-07T09:53:00;8.57;;;2.63;;
55633;SDS011;41504;53.162;6.788;2023-08-07T09:55:27;8.02;;;2.60;;
55633;SDS011;41504;53.162;6.788;2023-08-07T09:57:56;9.98;;;2.92;;
55633;SDS011;41504;53.162;6.788;2023-08-07T10:00:22;10.43;;;2.72;;
55633;SDS011;41504;53.162;6.788;2023-08-07T10:02:48;11.13;;;3.40;;
55633;SDS011;41504;53.162;6.788;2023-08-07T10:05:15;7.75;;;2.42;;
55633;SDS011;41504;53.162;6.788;2023-08-07T10:07:42;7.05;;;2.40;;
55633;SDS011;41504;53.162;6.788;2023-08-07T10:10:07;10.02;;;2.75;;
55633;SDS011;41504;53.162;6.788;2023-08-07T10:12:34;10.73;;;2.72;;
55633;SDS011;41504;53.162;6.788;2023-08-07T10:15:02;8.68;;;2.65;;
55633;SDS011;41504;53.162;6.788;2023-08-07T10:17:29;9.63;;;2.53;;
55633;SDS011;41504;53.162;6.788;2023-08-07T10:19:56;12.38;;;2.90;;
55633;SDS011;41504;53.162;6.788;2023-08-07T10:22:23;8.77;;;2.60;;
55633;SDS011;41504;53.162;6.788;2023-08-07T10:24:53;8.18;;;2.35;;
55633;SDS011;41504;53.162;6.788;2023-08-07T10:27:21;8.85;;;2.65;;
55633;SDS011;41504;53.162;6.788;2023-08-07T10:29:49;7.50;;;2.33;;
55633;SDS011;41504;53.162;6.788;2023-08-07T10:32:17;8.77;;;2.80;;
55633;SDS011;41504;53.162;6.788;2023-08-07T10:34:49;10.43;;;2.80;;
55633;SDS011;41504;53.162;6.788;2023-08-07T10:40:05;7.35;;;2.60;;
55633;SDS011;41504;53.162;6.788;2023-08-07T10:45:40;10.27;;;2.90;;
55633;SDS011;41504;53.162;6.788;2023-08-07T10:48:12;9.25;;;3.20;;
55633;SDS011;41504;53.162;6.788;2023-08-07T10:50:49;13.27;;;2.67;;
55633;SDS011;41504;53.162;6.788;2023-08-07T10:53:19;9.98;;;2.80;;
55633;SDS011;41504;53.162;6.788;2023-08-07T10:56:29;10.93;;;3.53;;
55633;SDS011;41504;53.162;6.788;2023-08-07T10:58:54;10.05;;;2.92;;
55633;SDS011;41504;53.162;6.788;2023-08-07T11:01:21;7.68;;;2.42;;
55633;SDS011;41504;53.162;6.788;2023-08-07T11:04:02;9.15;;;2.45;;
55633;SDS011;41504;53.162;6.788;2023-08-07T11:06:35;6.75;;;2.20;;
55633;SDS011;41504;53.162;6.788;2023-08-07T11:09:08;6.93;;;2.15;;
55633;SDS011;41504;53.162;6.788;2023-08-07T11:11:44;6.65;;;2.53;;
55633;SDS011;41504;53.162;6.788;2023-08-07T11:14:12;5.88;;;2.10;;
55633;SDS011;41504;53.162;6.788;2023-08-07T11:16:39;8.52;;;2.05;;
55633;SDS011;41504;53.162;6.788;2023-08-07T11:19:09;6.47;;;1.83;;
55633;SDS011;41504;53.162;6.788;2023-08-07T11:21:38;6.53;;;1.90;;
55633;SDS011;41504;53.162;6.788;2023-08-07T11:24:05;8.52;;;2.20;;
55633;SDS011;41504;53.162;6.788;2023-08-07T11:26:31;8.52;;;2.20;;
55633;SDS011;41504;53.162;6.788;2023-08-07T11:28:57;7.35;;;2.03;;
55633;SDS011;41504;53.162;6.788;2023-08-07T11:31:23;7.68;;;2.08;;
55633;SDS011;41504;53.162;6.788;2023-08-07T11:33:50;8.77;;;2.20;;
55633;SDS011;41504;53.162;6.788;2023-08-07T11:36:25;6.82;;;2.47;;
55633;SDS011;41504;53.162;6.788;2023-08-07T11:38:50;7.72;;;2.42;;
55633;SDS011;41504;53.162;6.788;2023-08-07T11:41:17;6.93;;;2.22;;
55633;SDS011;41504;53.162;6.788;2023-08-07T11:43:44;14.52;;;3.15;;
55633;SDS011;41504;53.162;6.788;2023-08-07T11:46:11;8.93;;;2.42;;
55633;SDS011;41504;53.162;6.788;2023-08-07T11:48:39;7.05;;;2.50;;
55633;SDS011;41504;53.162;6.788;2023-08-07T11:51:06;9.52;;;3.03;;
55633;SDS011;41504;53.162;6.788;2023-08-07T11:53:36;6.72;;;2.30;;
55633;SDS011;41504;53.162;6.788;2023-08-07T11:56:04;8.23;;;2.20;;
55633;SDS011;41504;53.162;6.788;2023-08-07T11:58:35;6.75;;;2.17;;
55633;SDS011;41504;53.162;6.788;2023-08-07T12:01:11;7.20;;;2.30;;
55633;SDS011;41504;53.162;6.788;2023-08-07T12:03:41;8.23;;;2.40;;
55633;SDS011;41504;53.162;6.788;2023-08-07T12:06:08;6.65;;;2.30;;
55633;SDS011;41504;53.162;6.788;2023-08-07T12:08:38;6.25;;;1.92;;
55633;SDS011;41504;53.162;6.788;2023-08-07T12:11:09;4.80;;;1.77;;
55633;SDS011;41504;53.162;6.788;2023-08-07T12:13:40;4.07;;;1.90;;
55633;SDS011;41504;53.162;6.788;2023-08-07T12:16:10;4.70;;;1.77;;
55633;SDS011;41504;53.162;6.788;2023-08-07T12:18:43;7.75;;;1.83;;
55633;SDS011;41504;53.162;6.788;2023-08-07T12:21:19;5.72;;;1.83;;
55633;SDS011;41504;53.162;6.788;2023-08-07T12:23:54;7.80;;;2.20;;
55633;SDS011;41504;53.162;6.788;2023-08-07T12:26:20;8.00;;;2.13;;
55633;SDS011;41504;53.162;6.788;2023-08-07T12:28:46;7.40;;;2.20;;
55633;SDS011;41504;53.162;6.788;2023-08-07T12:31:12;8.52;;;2.40;;
55633;SDS011;41504;53.162;6.788;2023-08-07T12:33:38;7.15;;;2.33;;
55633;SDS011;41504;53.162;6.788;2023-08-07T12:36:03;7.57;;;2.20;;
55633;SDS011;41504;53.162;6.788;2023-08-07T12:38:30;6.18;;;2.08;;
55633;SDS011;41504;53.162;6.788;2023-08-07T12:40:56;7.97;;;2.05;;
55633;SDS011;41504;53.162;6.788;2023-08-07T12:43:22;6.32;;;2.15;;
55633;SDS011;41504;53.162;6.788;2023-08-07T12:45:48;6.63;;;2.67;;
55633;SDS011;41504;53.162;6.788;2023-08-07T12:48:14;9.65;;;2.65;;
55633;SDS011;41504;53.162;6.788;2023-08-07T12:50:40;8.85;;;2.50;;
55633;SDS011;41504;53.162;6.788;2023-08-07T12:53:06;9.32;;;2.75;;
55633;SDS011;41504;53.162;6.788;2023-08-07T12:55:33;7.03;;;2.25;;
55633;SDS011;41504;53.162;6.788;2023-08-07T12:57:59;8.43;;;2.78;;
55633;SDS011;41504;53.162;6.788;2023-08-07T13:00:25;8.18;;;2.42;;
55633;SDS011;41504;53.162;6.788;2023-08-07T13:02:51;6.82;;;2.15;;
55633;SDS011;41504;53.162;6.788;2023-08-07T13:05:18;8.23;;;2.97;;
55633;SDS011;41504;53.162;6.788;2023-08-07T13:07:45;10.02;;;2.80;;
55633;SDS011;41504;53.162;6.788;2023-08-07T13:10:12;5.50;;;2.10;;
55633;SDS011;41504;53.162;6.788;2023-08-07T13:12:40;8.90;;;2.50;;
55633;SDS011;41504;53.162;6.788;2023-08-07T13:15:08;7.47;;;2.25;;
55633;SDS011;41504;53.162;6.788;2023-08-07T13:17:38;6.60;;;2.20;;
55633;SDS011;41504;53.162;6.788;2023-08-07T13:20:04;7.10;;;2.47;;
55633;SDS011;41504;53.162;6.788;2023-08-07T13:22:37;10.40;;;2.90;;
55633;SDS011;41504;53.162;6.788;2023-08-07T13:25:04;6.28;;;2.20;;
55633;SDS011;41504;53.162;6.788;2023-08-07T13:27:34;8.00;;;2.53;;
55633;SDS011;41504;53.162;6.788;2023-08-07T13:30:00;10.48;;;2.70;;
55633;SDS011;41504;53.162;6.788;2023-08-07T13:32:27;8.48;;;2.28;;
55633;SDS011;41504;53.162;6.788;2023-08-07T13:34:53;9.38;;;3.03;;
55633;SDS011;41504;53.162;6.788;2023-08-07T13:37:19;8.23;;;2.70;;
55633;SDS011;41504;53.162;6.788;2023-08-07T13:39:45;12.20;;;3.15;;
55633;SDS011;41504;53.162;6.788;2023-08-07T13:42:13;9.60;;;2.72;;
55633;SDS011;41504;53.162;6.788;2023-08-07T13:44:39;8.38;;;3.10;;
55633;SDS011;41504;53.162;6.788;2023-08-07T13:47:05;9.40;;;2.88;;
55633;SDS011;41504;53.162;6.788;2023-08-07T13:49:31;11.18;;;3.20;;
55633;SDS011;41504;53.162;6.788;2023-08-07T13:51:57;9.45;;;2.60;;
55633;SDS011;41504;53.162;6.788;2023-08-07T13:54:23;7.93;;;2.72;;
55633;SDS011;41504;53.162;6.788;2023-08-07T13:56:49;8.40;;;3.05;;
55633;SDS011;41504;53.162;6.788;2023-08-07T13:59:15;8.57;;;2.70;;
55633;SDS011;41504;53.162;6.788;2023-08-07T14:01:41;8.85;;;2.63;;
55633;SDS011;41504;53.162;6.788;2023-08-07T14:04:07;7.90;;;2.55;;
55633;SDS011;41504;53.162;6.788;2023-08-07T14:06:33;9.70;;;2.78;;
55633;SDS011;41504;53.162;6.788;2023-08-07T14:09:02;7.18;;;2.72;;
55633;SDS011;41504;53.162;6.788;2023-08-07T14:11:28;7.72;;;2.60;;
55633;SDS011;41504;53.162;6.788;2023-08-07T14:13:59;9.50;;;3.05;;
55633;SDS011;41504;53.162;6.788;2023-08-07T14:16:25;8.85;;;2.70;;
55633;SDS011;41504;53.162;6.788;2023-08-07T14:18:51;7.30;;;2.75;;
55633;SDS011;41504;53.162;6.788;2023-08-07T14:21:17;7.40;;;2.45;;
55633;SDS011;41504;53.162;6.788;2023-08-07T14:23:43;8.75;;;2.95;;
55633;SDS011;41504;53.162;6.788;2023-08-07T14:26:10;9.18;;;2.85;;
55633;SDS011;41504;53.162;6.788;2023-08-07T14:28:37;8.70;;;2.90;;
55633;SDS011;41504;53.162;6.788;2023-08-07T14:31:05;7.63;;;2.70;;
55633;SDS011;41504;53.162;6.788;2023-08-07T14:33:33;9.77;;;2.80;;
55633;SDS011;41504;53.162;6.788;2023-08-07T14:35:59;10.23;;;3.00;;
55633;SDS011;41504;53.162;6.788;2023-08-07T14:38:25;10.73;;;2.70;;
55633;SDS011;41504;53.162;6.788;2023-08-07T14:40:54;9.10;;;2.58;;
55633;SDS011;41504;53.162;6.788;2023-08-07T14:43:21;7.45;;;2.72;;
55633;SDS011;41504;53.162;6.788;2023-08-07T14:45:47;10.63;;;3.22;;
55633;SDS011;41504;53.162;6.788;2023-08-07T14:48:13;8.88;;;2.50;;
55633;SDS011;41504;53.162;6.788;2023-08-07T14:50:40;8.73;;;2.40;;
55633;SDS011;41504;53.162;6.788;2023-08-07T14:53:06;6.85;;;2.35;;
55633;SDS011;41504;53.162;6.788;2023-08-07T14:55:32;8.80;;;2.33;;
55633;SDS011;41504;53.162;6.788;2023-08-07T14:57:58;5.97;;;1.83;;
55633;SDS011;41504;53.162;6.788;2023-08-07T15:00:24;6.90;;;2.22;;
55633;SDS011;41504;53.162;6.788;2023-08-07T15:02:50;7.15;;;2.15;;
55633;SDS011;41504;53.162;6.788;2023-08-07T15:05:15;5.50;;;1.92;;